x

New London Ledge Ct - Ledge Light Weather Station (ldlc3) Weather Station

3:40 - Tue 7th Jul 2015 All times are EDT. -4 hours from GMT.

  • Wind
    16mph, 17mph gusts
  • Air Temp 70°f
  • Sea Pressure 1015.9mb
  • New London Ledge Ct - Ledge Light Weather Station
  • New London Ledge Ct - Ledge Light Weather Station

More Historic Weather Station data

Upgrade to MSW Pro to gain access to the past 30 days of data for over 8000 Wavebouys and Weather Stations around the globe.

Join Pro

Comparision Forecast

View Surf forecast
   
mar. 07/07 3:40 16 17 mph 1015.9mb 70f
3:25 18 20 mph 1016.2mb 71f
3:10 20 21 mph 1016.2mb 71f
2:55 20 22 mph 1016.2mb 70f
2:40 20 21 mph 1016.3mb 70f
2:25 17 20 mph 1016.5mb 70f
2:10 14 16 mph 1016.8mb 70f
1:55 14 15 mph 1017mb 69f
1:40 11 14 mph 1017mb 69f
1:25 11 13 mph 1017.1mb 69f
1:10 14
mph
1017.1mb 69f
12:55 13 14 mph 1017.1mb 70f
12:40 16 17 mph 1017.2mb 70f
12:25 16 17 mph 1017.3mb 70f
12:10 16 17 mph 1017.6mb 70f
11:55 15 16 mph 1018mb 70f
11:40 14 15 mph 1018.2mb 71f
11:25 14 15 mph 1018.2mb 71f
11:10 14 15 mph 1018.3mb 71f
10:55 13 14 mph 1018.3mb 70f
10:40 13 14 mph 1018.3mb 70f
10:25 13
mph
1018.5mb 70f
10:10 11
mph
1018.6mb 69f
9:55 10 13 mph 1018.6mb 69f
9:40 13
mph
1018.6mb 69f
9:25 11 13 mph 1018.6mb 69f
9:10 13
mph
1018.6mb 69f
8:55 11 13 mph 1018.5mb 69f
8:40 9 10 mph 1018.5mb 69f
8:25 8
mph
1018.5mb 68f
8:10 9
mph
1018.5mb 68f
7:55 8 9 mph 1018.4mb 68f
7:40 10
mph
1018.4mb 68f
7:25 8 10 mph 1018.5mb 68f
7:10 7
mph
1018.5mb 67f
6:55 9 11 mph 1018.5mb 68f
6:40 10 11 mph 1018.5mb 67f
6:25 11
mph
1018.5mb 67f
6:10 10 11 mph 1018.6mb 67f
5:55 13 14 mph 1018.4mb 67f
5:40 13 14 mph 1018.4mb 67f
5:25 13 14 mph 1018.4mb 68f
5:10 14 15 mph 1018.3mb 68f
4:55 14 15 mph 1018.4mb 68f
4:40 11 14 mph 1018.4mb 68f
4:25 10 11 mph 1018.3mb 68f
4:10 11 13 mph 1018.3mb 68f
3:55 10 11 mph 1018.2mb 68f
3:40 9 10 mph 1018.3mb 68f
3:25 10
mph
1018.3mb 68f
3:10 9
mph
1018.4mb 68f
2:55 8
mph
1018.6mb 68f
2:40 7
mph
1018.6mb 69f
2:25 6 7 mph 1018.9mb 68f
2:10 7
mph
1019.1mb 69f
1:55 5
mph
1019.1mb 69f
1:40 5 6 mph 1019.1mb 68f
1:25 3 5 mph 1019.1mb 68f
1:10 2 3 mph 1019.2mb 68f
lun. 07/06 7:55 2 3 mph 1019.9mb 70f
7:40 1 2 mph 1020mb 70f
7:25 5 6 mph 1020mb 70f
7:10 5
mph
1020.1mb 70f
7:05 5 7 mph 1020.1mb 69f
6:55 6 7 mph 1020.2mb 69f
6:40 7 9 mph 1020.2mb 69f
6:25 13 14 mph 1020.2mb 69f
6:10 13
mph
1020.3mb 70f
5:55 11 13 mph 1020.3mb 70f
5:40 11 13 mph 1020.3mb 69f
5:25 13 14 mph 1020.3mb 69f
5:10 15 16 mph 1020.3mb 70f
4:55 16
mph
1020.3mb 70f
4:40 15 16 mph 1020.5mb 70f
4:25 15 16 mph 1020.7mb 70f
4:10 14 15 mph 1020.7mb 70f
3:55 14 15 mph 1020.6mb 71f
3:40 15 16 mph 1020.6mb 71f
3:25 13 14 mph 1020.8mb 72f
3:10 9 10 mph 1020.9mb 73f
2:55 9
mph
1021.1mb 71f
2:40 6 7 mph 1021.4mb 71f
2:25 6 7 mph 1021.5mb 71f
2:10 5
mph
1021.7mb 70f
1:55 5
mph
1021.8mb 70f
1:40 5 6 mph 1021.8mb 70f
1:25 5 6 mph 1021.7mb 71f
1:10 5 6 mph 1021.7mb 71f
12:55 8
mph
1021.6mb 70f
12:40 9 10 mph 1021.5mb 68f
12:25 9 10 mph 1021.6mb 69f
12:10 6 7 mph 1021.7mb 71f
11:55 6 7 mph 1021.8mb 70f
11:40 7
mph
1021.8mb 71f
11:25 7
mph
1021.7mb 71f
11:10 6 7 mph 1021.5mb 71f
10:55 3 5 mph 1021.3mb 69f
10:40 3
mph
1021.3mb 70f
10:25 5
mph
1021.4mb 68f
10:10 6
mph
1021.3mb 70f
9:55 6 7 mph 1021.2mb 69f
9:40 6 7 mph 1021mb 70f
9:25 5 6 mph 1021mb 68f
9:10 2 3 mph 1021mb 69f
8:55 2 5 mph 1021mb 70f
8:40 5 6 mph 1021mb 70f
8:25 5 6 mph 1021.1mb 68f
8:10 1 2 mph 1021.2mb 69f
7:55 1 5 mph 1021.3mb 69f
7:40 1 2 mph 1021.3mb 67f
7:25  -  1 mph 1021.3mb 66f
7:10 2
mph
1021.3mb 65f
6:55 2 3 mph 1021.2mb 65f
6:40 1 2 mph 1021mb 66f
6:25 2
mph
1021mb 66f
6:10 1 2 mph 1021.1mb 65f
5:55 1 2 mph 1021mb 65f
5:40 2 3 mph 1020.9mb 65f
5:25  -  2 mph 1020.8mb 65f
5:10  -  1 mph 1020.7mb 66f
4:55  -  2 mph 1020.5mb 66f
4:40  -  1 mph 1020.5mb 66f
4:25 2
mph
1020.4mb 66f
4:10 1 2 mph 1020.3mb 65f
3:55 2 3 mph 1020.2mb 66f
3:40 2 3 mph 1020.3mb 65f
3:25 3 5 mph 1020.5mb 65f
3:10 6
mph
1020.6mb 66f
2:55 3 5 mph 1020.5mb 66f
2:40 5
mph
1020.5mb 66f
2:25 6 7 mph 1020.6mb 66f
2:10 3
mph
1020.4mb 66f
1:55 2 3 mph 1020.5mb 66f
1:40 3
mph
1020.4mb 67f
1:25 3 5 mph 1020.4mb 67f
1:10 1 2 mph 1020.6mb 67f
dim. 07/05 7:55 9 10 mph 1018.9mb 70f
7:40 11 13 mph 1018.8mb 72f
7:25 10 11 mph 1018.8mb 72f
7:10 11 13 mph 1018.8mb 73f
6:55 13
mph
1018.8mb 71f
6:40 10 11 mph 1018.8mb 71f
6:25 11
mph
1018.7mb 70f
6:10 14
mph
1018.6mb 71f
5:55 11 13 mph 1018.7mb 70f
5:40 7 8 mph 1018.7mb 69f
5:25 9 10 mph 1018.7mb 70f
5:10 9 11 mph 1018.6mb 71f
4:55 10 13 mph 1018.6mb 71f
4:40 15 16 mph 1018.6mb 71f
4:25 14 15 mph 1018.5mb 70f
4:10 14
mph
1018.5mb 69f
3:55 11 13 mph 1018.6mb 69f
3:40 11 13 mph 1018.6mb 69f
3:25 14 15 mph 1018.7mb 70f
3:10 16 17 mph 1018.7mb 70f
2:55 16 17 mph 1018.7mb 70f
2:40 14 15 mph 1018.8mb 68f
2:25 14 15 mph 1018.9mb 68f
2:10 14 15 mph 1018.8mb 68f
1:55 13 15 mph 1018.8mb 67f
1:40 15 16 mph 1018.9mb 68f
1:25 16 18 mph 1018.8mb 68f
1:10 17 18 mph 1018.9mb 67f
12:55 17 20 mph 1019mb 67f
12:40 15 17 mph 1019.1mb 67f
12:10 16 18 mph 1018.8mb 67f
11:55 16 17 mph 1018.7mb 67f
11:40 15 16 mph 1018.8mb 68f
11:25 11 13 mph 1018.9mb 68f
11:10 13 15 mph 1018.8mb 67f
10:55 13 15 mph 1018.8mb 68f
10:40 11 13 mph 1019mb 68f
10:25 11 14 mph 1019mb 68f
10:10 10 13 mph 1019mb 68f
9:55 13 14 mph 1018.8mb 68f
9:40 14 15 mph 1018.9mb 67f
9:25 10 11 mph 1018.9mb 68f
9:10 10
mph
1018.9mb 67f
8:55 9 10 mph 1019mb 68f
8:40 8 9 mph 1018.7mb 68f
8:25 5 6 mph 1018.6mb 68f
8:10 3 7 mph 1018.4mb 69f
7:55 5 7 mph 1018.2mb 67f
7:40 6 7 mph 1018mb 66f
7:25 5
mph
1018mb 66f
7:10 5 6 mph 1017.8mb 64f
6:55 3 6 mph 1017.8mb 64f
6:40 3 6 mph 1017.7mb 64f
6:25 5 7 mph 1017.5mb 63f
6:10 5 7 mph 1017.3mb 63f
5:55 5 7 mph 1017.1mb 63f
5:40 2 3 mph 1017mb 63f
5:25 5 6 mph 1016.9mb 63f
5:10 3 5 mph 1016.7mb 63f
4:55 5 6 mph 1016.5mb 63f
4:40 3 5 mph 1016.3mb 63f
4:25 5
mph
1016.3mb 63f
4:10 5
mph
1016.3mb 63f
3:55 5 6 mph 1016.3mb 63f
3:40 5 7 mph 1016.3mb 63f
3:25 3 6 mph 1016.3mb 63f
3:10 5 6 mph 1016.4mb 63f
2:55 8 9 mph 1016.3mb 63f
2:40 7 9 mph 1016.3mb 63f
2:25 7 8 mph 1016.3mb 63f
2:10 6 7 mph 1016.4mb 63f
1:55 7 8 mph 1016.4mb 64f
1:40 6 9 mph 1016.5mb 64f
1:25 5 6 mph 1016.4mb 64f
1:10 5 7 mph 1016.2mb 65f
sam. 07/04 7:55 5 6 mph 1013.9mb 69f
7:40 5
mph
1013.7mb 69f
7:25 3
mph
1013.5mb 71f
7:10 3
mph
1013.6mb 71f
6:55 2 3 mph 1013.6mb 70f
6:40 1 2 mph 1013.4mb 68f
6:25 5 6 mph 1013.2mb 68f
6:10 8 9 mph 1013.2mb 68f
5:55 9 10 mph 1013.1mb 68f
5:40 8 9 mph 1013.3mb 68f
5:25 8
mph
1013.6mb 68f
5:10 9 10 mph 1013.6mb 68f
4:55 10 11 mph 1013.3mb 67f
4:40 11 13 mph 1013.1mb 67f
4:25 11 14 mph 1013.4mb 68f
4:10 15 16 mph 1013.3mb 68f
3:55 14 15 mph 1013.7mb 68f
3:40 16 17 mph 1013.7mb 68f
3:25 14 15 mph 1014mb 68f
3:10 14 15 mph 1014mb 68f
2:55 14 15 mph 1014.1mb 69f
2:40 13 14 mph 1014.1mb 68f
2:25 14 15 mph 1014mb 68f
2:10 14 16 mph 1014.1mb 68f
1:55 13 15 mph 1014.2mb 68f
1:40 10 11 mph 1014.2mb 67f
1:25 9 10 mph 1014.3mb 67f
1:10 9 10 mph 1014.2mb 67f
12:55 10 11 mph 1014.1mb 67f
12:40 8 9 mph 1014.1mb 68f
12:25 10 11 mph 1013.8mb 69f
12:10 8 9 mph 1014.1mb 68f
11:55 9 10 mph 1014.1mb 68f
11:40 10 11 mph 1014.1mb 67f
11:25 10 11 mph 1014.3mb 67f
11:10 13 14 mph 1014.3mb 67f
10:55 14 15 mph 1014.3mb 67f
10:40 15 16 mph 1014.2mb 67f
10:25 14 15 mph 1014.3mb 66f
10:10 9 10 mph 1014.4mb 66f
9:55 8 9 mph 1014.5mb 67f
9:40 9 11 mph 1014.4mb 67f
9:25 10 11 mph 1014.4mb 66f
9:10 11 13 mph 1014.5mb 66f
8:55 11 13 mph 1014.3mb 66f
8:40 10 14 mph 1014.4mb 66f
8:25 8 9 mph 1014.8mb 66f
8:10 7 8 mph 1014.7mb 65f
7:55 6 7 mph 1014.8mb 65f
7:40 7 8 mph 1014.8mb 65f
7:25 7 8 mph 1014.9mb 65f
7:10 5 6 mph 1014.8mb 65f
6:55 5 6 mph 1014.8mb 65f
6:40 7 8 mph 1014.7mb 64f
6:25 5 7 mph 1014.7mb 64f
6:10 3 6 mph 1014.8mb 64f
5:55 3 5 mph 1015mb 64f
5:40 3 6 mph 1014.9mb 64f
5:25 2 3 mph 1015mb 64f
5:10 2 3 mph 1015.2mb 64f
4:55 5 6 mph 1015mb 64f
4:40 3
mph
1015.2mb 64f
4:25 3 5 mph 1015.1mb 65f
4:10 3 5 mph 1015.1mb 64f
3:55 5 6 mph 1015.1mb 65f
3:40 3
mph
1015.2mb 65f
3:25 5 6 mph 1015.3mb 65f
3:10 3 5 mph 1015.3mb 65f
2:55 2
mph
1015.4mb 66f
2:40 1 2 mph 1015.4mb 65f
2:25 2
mph
1015.4mb 65f
2:10 2 3 mph 1015.4mb 65f
1:55 3
mph
1015.4mb 65f
1:40 2 3 mph 1015.4mb 65f
1:25 3
mph
1015.4mb 65f
1:10 2 3 mph 1015.5mb 65f